createdAt,value
2023-05-05T00:01:50.417Z,8.21
2023-05-05T00:04:16.626Z,8.23
2023-05-05T00:06:42.809Z,8.23
2023-05-05T00:09:08.907Z,8.13
2023-05-05T00:11:35.009Z,8.09
2023-05-05T00:14:01.135Z,7.98
2023-05-05T00:16:27.288Z,7.99
2023-05-05T00:18:53.489Z,7.84
2023-05-05T00:21:19.594Z,7.90
2023-05-05T00:23:45.997Z,7.95
2023-05-05T00:26:12.137Z,7.82
2023-05-05T00:28:38.253Z,7.88
2023-05-05T00:31:04.389Z,7.97
2023-05-05T00:33:30.547Z,8.07
2023-05-05T00:35:56.786Z,8.06
2023-05-05T00:38:22.926Z,7.97
2023-05-05T00:40:49.340Z,7.96
2023-05-05T00:43:15.424Z,8.05
2023-05-05T00:45:41.519Z,8.05
2023-05-05T00:48:07.703Z,8.16
2023-05-05T00:50:33.979Z,8.52
2023-05-05T00:53:00.277Z,8.62
2023-05-05T00:55:26.397Z,8.54
2023-05-05T00:57:52.848Z,8.19
2023-05-05T01:00:18.957Z,8.27
2023-05-05T01:02:45.166Z,8.36
2023-05-05T01:05:11.305Z,8.27
2023-05-05T01:07:37.396Z,8.33
2023-05-05T01:10:18.236Z,8.36
2023-05-05T01:12:45.652Z,8.28
2023-05-05T01:15:11.784Z,8.42
2023-05-05T01:17:37.973Z,8.04
2023-05-05T01:20:04.137Z,7.93
2023-05-05T01:22:30.277Z,7.98
2023-05-05T01:24:56.394Z,7.88
2023-05-05T01:27:22.532Z,7.90
2023-05-05T01:29:48.664Z,7.72
2023-05-05T01:32:14.772Z,7.56
2023-05-05T01:34:40.886Z,7.50
2023-05-05T01:37:06.975Z,7.48
2023-05-05T01:39:33.234Z,7.43
2023-05-05T01:41:59.336Z,7.58
2023-05-05T01:44:25.461Z,7.76
2023-05-05T01:46:51.564Z,7.60
2023-05-05T01:49:17.703Z,7.27
2023-05-05T01:51:43.810Z,7.43
2023-05-05T01:54:09.916Z,7.59
2023-05-05T01:56:36.054Z,7.59
2023-05-05T01:59:02.190Z,7.46
2023-05-05T02:01:28.309Z,7.48
2023-05-05T02:03:54.420Z,7.42
2023-05-05T02:06:20.542Z,7.21
2023-05-05T02:08:46.677Z,7.12
2023-05-05T02:11:12.796Z,7.01
2023-05-05T02:13:38.960Z,6.94
2023-05-05T02:16:05.169Z,6.85
2023-05-05T02:18:31.279Z,6.88
2023-05-05T02:20:57.397Z,6.90
2023-05-05T02:23:23.507Z,7.01
2023-05-05T02:25:49.586Z,6.93
2023-05-05T02:28:15.711Z,6.91
2023-05-05T02:30:41.821Z,6.91
2023-05-05T02:33:08.005Z,6.87
2023-05-05T02:35:34.144Z,6.86
2023-05-05T02:38:00.228Z,6.79
2023-05-05T02:40:26.441Z,6.90
2023-05-05T02:42:52.601Z,6.96
2023-05-05T02:45:18.775Z,6.81
2023-05-05T02:47:44.890Z,6.80
2023-05-05T02:50:11.311Z,6.79
2023-05-05T02:52:37.533Z,6.89
2023-05-05T02:55:03.785Z,6.98
2023-05-05T02:57:29.888Z,6.76
2023-05-05T02:59:56.011Z,6.66
2023-05-05T03:02:22.205Z,6.83
2023-05-05T03:04:48.372Z,6.99
2023-05-05T03:07:14.526Z,6.86
2023-05-05T03:09:40.624Z,6.62
2023-05-05T03:12:06.712Z,6.62
2023-05-05T03:14:33.532Z,6.55
2023-05-05T03:16:59.725Z,6.51
2023-05-05T03:19:25.820Z,6.60
2023-05-05T03:21:51.945Z,6.82
2023-05-05T03:24:18.094Z,6.68
2023-05-05T03:26:44.564Z,6.65
2023-05-05T03:29:10.800Z,6.67
2023-05-05T03:31:36.976Z,6.65
2023-05-05T03:34:03.435Z,6.68
2023-05-05T03:36:29.623Z,6.67
2023-05-05T03:38:55.800Z,6.54
2023-05-05T03:41:22.018Z,6.56
2023-05-05T03:43:48.158Z,6.50
2023-05-05T03:46:14.378Z,6.54
2023-05-05T03:48:40.524Z,6.46
2023-05-05T03:51:06.642Z,6.37
2023-05-05T03:53:32.752Z,6.50
2023-05-05T03:55:58.848Z,6.37
2023-05-05T03:58:24.953Z,6.23
2023-05-05T04:00:51.083Z,6.22
2023-05-05T04:03:17.387Z,6.25
2023-05-05T04:05:43.642Z,6.21
2023-05-05T04:08:09.764Z,6.27
2023-05-05T04:10:35.882Z,6.32
2023-05-05T04:13:02.080Z,6.38
2023-05-05T04:15:28.267Z,6.47
2023-05-05T04:17:54.405Z,6.20
2023-05-05T04:20:20.563Z,6.26
2023-05-05T04:22:46.680Z,6.36
2023-05-05T04:25:12.784Z,6.49
2023-05-05T04:27:38.896Z,6.51
2023-05-05T04:30:05.122Z,6.71
2023-05-05T04:32:31.326Z,6.55
2023-05-05T04:34:57.458Z,6.51
2023-05-05T04:37:23.576Z,6.47
2023-05-05T04:39:49.705Z,6.29
2023-05-05T04:42:15.815Z,6.46
2023-05-05T04:44:41.931Z,6.44
2023-05-05T04:47:08.043Z,6.39
2023-05-05T04:49:34.170Z,6.46
2023-05-05T04:52:00.335Z,6.62
2023-05-05T04:54:26.461Z,6.60
2023-05-05T04:56:52.556Z,6.61
2023-05-05T04:59:18.677Z,6.75
2023-05-05T05:01:44.823Z,6.63
2023-05-05T05:04:10.940Z,6.64
2023-05-05T05:06:37.071Z,6.74
2023-05-05T05:09:03.194Z,6.78
2023-05-05T05:11:29.474Z,6.88
2023-05-05T05:13:55.603Z,7.04
2023-05-05T05:16:21.759Z,7.06
2023-05-05T05:18:47.881Z,7.19
2023-05-05T05:21:14.081Z,7.10
2023-05-05T05:23:40.176Z,7.11
2023-05-05T05:26:06.459Z,7.25
2023-05-05T05:28:32.557Z,7.28
2023-05-05T05:30:58.644Z,7.39
2023-05-05T05:33:24.876Z,7.40
2023-05-05T05:35:50.958Z,7.46
2023-05-05T05:38:17.082Z,7.59
2023-05-05T05:40:43.218Z,7.68
2023-05-05T05:43:09.334Z,7.77
2023-05-05T05:45:35.466Z,8.27
2023-05-05T05:48:01.672Z,8.32
2023-05-05T05:50:27.817Z,8.53
2023-05-05T05:52:53.906Z,8.56
2023-05-05T05:55:20.021Z,8.51
2023-05-05T05:57:46.150Z,8.38
2023-05-05T06:00:12.259Z,8.29
2023-05-05T06:02:38.486Z,8.25
2023-05-05T06:05:04.778Z,8.42
2023-05-05T06:07:30.925Z,8.40
2023-05-05T06:09:57.048Z,8.44
2023-05-05T06:12:23.144Z,8.46
2023-05-05T06:14:49.228Z,8.45
2023-05-05T06:17:15.331Z,8.35
2023-05-05T06:19:41.429Z,8.43
2023-05-05T06:22:07.552Z,8.33
2023-05-05T06:24:33.718Z,8.35
2023-05-05T06:26:59.836Z,8.25
2023-05-05T06:29:25.966Z,8.59
2023-05-05T06:31:52.203Z,8.61
2023-05-05T06:34:18.313Z,8.86
2023-05-05T06:36:44.437Z,9.12
2023-05-05T06:39:10.590Z,9.20
2023-05-05T06:41:36.684Z,9.54
2023-05-05T06:44:02.784Z,9.57
2023-05-05T06:46:29.034Z,9.69
2023-05-05T06:48:55.141Z,9.83
2023-05-05T06:51:21.239Z,10.22
2023-05-05T06:53:47.366Z,10.61
2023-05-05T06:56:13.482Z,10.45
2023-05-05T06:58:39.616Z,10.61
2023-05-05T07:01:05.757Z,10.94
2023-05-05T07:03:31.958Z,11.02
2023-05-05T07:05:58.067Z,11.17
2023-05-05T07:08:24.176Z,11.39
2023-05-05T07:10:50.293Z,11.83
2023-05-05T07:13:16.610Z,11.98
2023-05-05T07:15:42.765Z,12.03
2023-05-05T07:18:08.909Z,12.05
2023-05-05T07:20:35.080Z,12.34
2023-05-05T07:23:01.327Z,12.60
2023-05-05T07:25:27.454Z,12.91
2023-05-05T07:27:53.576Z,13.21
2023-05-05T07:30:20.181Z,13.19
2023-05-05T07:32:46.518Z,13.42
2023-05-05T07:35:12.737Z,13.34
2023-05-05T07:37:38.886Z,13.40
2023-05-05T07:40:05.050Z,13.81
2023-05-05T07:42:31.157Z,13.91
2023-05-05T07:44:57.284Z,13.83
2023-05-05T07:47:23.568Z,13.65
2023-05-05T07:49:49.714Z,13.81
2023-05-05T07:52:15.816Z,14.01
2023-05-05T07:54:41.928Z,14.07
2023-05-05T07:57:08.048Z,14.16
2023-05-05T07:59:34.185Z,14.37
2023-05-05T08:02:00.270Z,14.54
2023-05-05T08:04:26.408Z,14.56
2023-05-05T08:06:52.555Z,14.43
2023-05-05T08:09:18.677Z,14.18
2023-05-05T08:11:44.783Z,13.54
2023-05-05T08:14:10.894Z,13.74
2023-05-05T08:16:37.043Z,13.65
2023-05-05T08:19:04.106Z,13.67
2023-05-05T08:21:31.130Z,14.21
2023-05-05T08:23:57.227Z,14.34
2023-05-05T08:26:23.345Z,13.75
2023-05-05T08:28:49.433Z,13.53
2023-05-05T08:31:15.560Z,13.59
2023-05-05T08:33:41.751Z,13.65
2023-05-05T08:36:07.891Z,13.86
2023-05-05T08:38:34.033Z,13.60
2023-05-05T08:41:00.171Z,13.48
2023-05-05T08:43:26.319Z,13.54
2023-05-05T08:45:52.488Z,13.78
2023-05-05T08:48:18.590Z,13.11
2023-05-05T08:50:44.701Z,13.25
2023-05-05T08:53:10.796Z,13.43
2023-05-05T08:55:36.914Z,13.44
2023-05-05T08:58:03.014Z,13.82
2023-05-05T09:00:29.165Z,13.59
2023-05-05T09:02:55.346Z,13.54
2023-05-05T09:05:21.486Z,13.88
2023-05-05T09:07:47.651Z,13.35
2023-05-05T09:10:13.797Z,13.69
2023-05-05T09:12:39.912Z,13.64
2023-05-05T09:15:06.089Z,13.63
2023-05-05T09:17:32.263Z,13.59
2023-05-05T09:19:58.374Z,13.48
2023-05-05T09:22:24.501Z,13.39
2023-05-05T09:24:50.610Z,13.29
2023-05-05T09:27:16.765Z,13.63
2023-05-05T09:29:42.892Z,13.71
2023-05-05T09:32:09.192Z,13.76
2023-05-05T09:34:35.356Z,14.10
2023-05-05T09:37:01.553Z,14.27
2023-05-05T09:39:27.725Z,14.16
2023-05-05T09:41:53.813Z,14.60
2023-05-05T09:44:19.940Z,14.47
2023-05-05T09:46:46.157Z,14.58
2023-05-05T09:49:12.352Z,15.35
2023-05-05T09:51:38.505Z,15.58
2023-05-05T09:54:04.665Z,15.52
2023-05-05T09:56:30.805Z,15.83
2023-05-05T09:58:58.699Z,16.44
2023-05-05T10:01:24.889Z,15.88
2023-05-05T10:03:51.037Z,16.14
2023-05-05T10:06:17.164Z,15.90
2023-05-05T10:08:43.273Z,15.58
2023-05-05T10:11:09.381Z,15.66
2023-05-05T10:13:35.551Z,15.42
2023-05-05T10:16:01.825Z,15.42
2023-05-05T10:18:27.981Z,15.41
2023-05-05T10:20:54.145Z,15.40
2023-05-05T10:23:20.256Z,15.49
2023-05-05T10:25:46.417Z,15.66
2023-05-05T10:28:12.544Z,15.67
2023-05-05T10:30:38.636Z,15.58
2023-05-05T10:33:26.709Z,15.69
2023-05-05T10:35:50.876Z,16.11
2023-05-05T10:38:17.007Z,16.59
2023-05-05T10:40:43.183Z,16.67
2023-05-05T10:43:09.329Z,16.75
2023-05-05T10:45:35.674Z,16.74
2023-05-05T10:48:01.924Z,17.16
2023-05-05T10:50:28.086Z,16.86
2023-05-05T10:52:54.265Z,16.29
2023-05-05T10:55:20.458Z,16.47
2023-05-05T10:57:46.560Z,16.69
2023-05-05T11:00:14.072Z,16.16
2023-05-05T11:02:41.216Z,16.37
2023-05-05T11:05:07.342Z,16.75
2023-05-05T11:07:33.497Z,17.02
2023-05-05T11:09:59.598Z,16.49
2023-05-05T11:12:25.687Z,16.88
2023-05-05T11:14:51.829Z,16.78
2023-05-05T11:17:18.063Z,16.93
2023-05-05T11:19:44.200Z,16.57
2023-05-05T11:22:10.336Z,16.87
2023-05-05T11:24:36.445Z,16.92
2023-05-05T11:27:02.541Z,16.91
2023-05-05T11:29:28.628Z,16.89
2023-05-05T11:31:54.722Z,16.69
2023-05-05T11:34:20.871Z,16.76
2023-05-05T11:36:47.131Z,16.86
2023-05-05T11:39:13.243Z,17.42
2023-05-05T11:41:39.393Z,16.93
2023-05-05T11:44:05.488Z,17.16
2023-05-05T11:46:31.679Z,17.25
2023-05-05T11:48:57.800Z,16.88
2023-05-05T11:51:23.891Z,17.51
2023-05-05T11:53:50.009Z,17.43
2023-05-05T11:56:16.171Z,17.61
2023-05-05T11:58:42.275Z,17.48
2023-05-05T12:01:08.399Z,17.63
2023-05-05T12:03:34.630Z,17.06
2023-05-05T12:06:00.873Z,17.12
2023-05-05T12:08:27.014Z,17.28
2023-05-05T12:10:53.098Z,17.71
2023-05-05T12:13:19.321Z,17.37
2023-05-05T12:15:45.528Z,17.94
2023-05-05T12:18:12.022Z,17.76
2023-05-05T12:20:38.157Z,18.22
2023-05-05T12:23:04.326Z,17.05
2023-05-05T12:25:30.472Z,17.71
2023-05-05T12:27:56.563Z,17.71
2023-05-05T12:30:22.725Z,17.80
2023-05-05T12:32:48.868Z,18.32
2023-05-05T12:35:14.981Z,17.65
2023-05-05T12:37:41.099Z,17.88
2023-05-05T12:40:07.341Z,17.76
2023-05-05T12:42:33.692Z,18.05
2023-05-05T12:44:59.811Z,18.31
2023-05-05T12:47:25.931Z,18.56
2023-05-05T12:49:52.119Z,18.18
2023-05-05T12:52:18.224Z,18.38
2023-05-05T12:54:44.328Z,18.64
2023-05-05T12:57:10.427Z,19.07
2023-05-05T12:59:36.550Z,19.00
2023-05-05T13:02:02.708Z,19.10
2023-05-05T13:04:28.822Z,18.86
2023-05-05T13:06:54.906Z,19.37
2023-05-05T13:09:20.999Z,19.81
2023-05-05T13:11:47.093Z,19.07
2023-05-05T13:14:13.193Z,19.35
2023-05-05T13:16:39.333Z,19.09
2023-05-05T13:19:05.487Z,19.18
2023-05-05T13:21:31.846Z,18.71
2023-05-05T13:24:08.094Z,19.25
2023-05-05T13:26:44.099Z,18.75
2023-05-05T13:29:10.202Z,18.44
2023-05-05T13:31:36.369Z,18.32
2023-05-05T13:34:02.590Z,18.06
2023-05-05T13:36:28.681Z,18.18
2023-05-05T13:38:54.829Z,18.63
2023-05-05T13:41:20.948Z,18.70
2023-05-05T13:43:47.041Z,19.04
2023-05-05T13:48:42.606Z,18.24
2023-05-05T13:51:08.718Z,18.45
2023-05-05T13:53:34.804Z,18.22
2023-05-05T13:56:00.896Z,17.64
2023-05-05T13:58:26.996Z,17.91
2023-05-05T14:00:53.119Z,17.94
2023-05-05T14:03:19.270Z,18.37
2023-05-05T14:05:45.371Z,18.40
2023-05-05T14:08:11.468Z,18.64
2023-05-05T14:10:37.693Z,18.27
2023-05-05T14:13:03.783Z,18.30
2023-05-05T14:15:29.903Z,18.21
2023-05-05T14:17:56.072Z,18.79
2023-05-05T14:20:22.205Z,18.84
2023-05-05T14:22:49.395Z,18.43
2023-05-05T14:25:15.590Z,17.60
2023-05-05T14:27:41.696Z,17.20
2023-05-05T14:30:07.787Z,16.89
2023-05-05T14:32:33.972Z,17.18
2023-05-05T14:35:00.166Z,16.92
2023-05-05T14:37:26.304Z,16.70
2023-05-05T14:39:52.420Z,17.25
2023-05-05T14:42:18.518Z,17.03
2023-05-05T14:44:44.625Z,16.95
2023-05-05T14:47:10.729Z,17.13
2023-05-05T14:49:36.830Z,17.15
2023-05-05T14:52:02.930Z,17.20
2023-05-05T14:54:29.237Z,17.01
2023-05-05T14:56:56.765Z,16.87
2023-05-05T14:59:22.916Z,16.91
2023-05-05T15:01:49.072Z,17.20
2023-05-05T15:04:15.238Z,17.35
2023-05-05T15:06:41.365Z,18.07
2023-05-05T15:09:07.480Z,17.19
2023-05-05T15:11:33.675Z,17.89
2023-05-05T15:13:59.782Z,17.43
2023-05-05T15:16:25.886Z,17.05
2023-05-05T15:18:52.001Z,16.85
2023-05-05T15:21:18.132Z,16.58
2023-05-05T15:23:44.246Z,16.62
2023-05-05T15:26:10.410Z,16.89
2023-05-05T15:28:36.550Z,16.86
2023-05-05T15:31:02.649Z,16.81
2023-05-05T15:33:28.738Z,16.84
2023-05-05T15:35:54.862Z,16.52
2023-05-05T15:38:20.972Z,16.66
2023-05-05T15:40:48.942Z,16.67
2023-05-05T15:43:16.314Z,16.84
2023-05-05T15:45:42.436Z,16.51
2023-05-05T15:48:08.611Z,16.89
2023-05-05T15:50:34.724Z,16.75
2023-05-05T15:53:00.840Z,16.74
2023-05-05T15:55:26.934Z,16.59
2023-05-05T15:57:53.194Z,16.96
2023-05-05T16:00:19.289Z,17.00
2023-05-05T16:02:45.653Z,16.70
2023-05-05T16:05:11.857Z,16.66
2023-05-05T16:07:37.988Z,16.76
2023-05-05T16:10:04.120Z,16.50
2023-05-05T16:12:30.245Z,16.47
2023-05-05T16:14:56.493Z,16.50
2023-05-05T16:17:22.854Z,16.65
2023-05-05T16:19:49.029Z,16.07
2023-05-05T16:22:15.176Z,16.11
2023-05-05T16:24:43.099Z,16.23
2023-05-05T16:27:10.392Z,16.13
2023-05-05T16:29:36.494Z,16.14
2023-05-05T16:32:02.897Z,16.09
2023-05-05T16:34:29.084Z,15.86
2023-05-05T16:36:55.252Z,15.68
2023-05-05T16:39:21.494Z,15.72
2023-05-05T16:41:47.580Z,15.79
2023-05-05T16:44:13.724Z,15.90
2023-05-05T16:46:39.922Z,16.14
2023-05-05T16:49:06.163Z,16.19
2023-05-05T16:51:32.287Z,16.00
2023-05-05T16:53:58.421Z,15.48
2023-05-05T16:56:24.547Z,14.70
2023-05-05T16:58:51.011Z,14.48
2023-05-05T17:01:17.113Z,14.55
2023-05-05T17:03:43.205Z,14.32
2023-05-05T17:06:09.301Z,14.08
2023-05-05T17:08:35.411Z,13.99
2023-05-05T17:11:01.514Z,14.10
2023-05-05T17:13:27.613Z,13.98
2023-05-05T17:15:53.767Z,13.85
2023-05-05T17:18:19.880Z,13.92
2023-05-05T17:20:46.010Z,14.11
2023-05-05T17:23:12.117Z,13.95
2023-05-05T17:25:38.266Z,14.18
2023-05-05T17:28:04.406Z,14.51
2023-05-05T17:30:30.510Z,14.92
2023-05-05T17:32:56.603Z,15.25
2023-05-05T17:35:22.747Z,15.18
2023-05-05T17:37:48.901Z,15.66
2023-05-05T17:40:15.014Z,15.83
2023-05-05T17:42:41.153Z,16.10
2023-05-05T17:45:07.496Z,16.54
2023-05-05T17:47:34.104Z,16.67
2023-05-05T17:50:00.249Z,16.90
2023-05-05T17:52:26.386Z,17.03
2023-05-05T17:54:52.502Z,16.99
2023-05-05T17:57:18.598Z,16.91
2023-05-05T17:59:44.700Z,16.93
2023-05-05T18:02:10.855Z,16.80
2023-05-05T18:04:36.957Z,16.61
2023-05-05T18:07:03.121Z,16.61
2023-05-05T18:09:29.252Z,16.54
2023-05-05T18:11:55.352Z,16.75
2023-05-05T18:14:21.461Z,16.79
2023-05-05T18:16:47.618Z,16.39
2023-05-05T18:19:13.754Z,16.25
2023-05-05T18:21:39.843Z,15.83
2023-05-05T18:24:18.576Z,16.00
2023-05-05T18:26:45.970Z,15.91
2023-05-05T18:29:12.087Z,15.82
2023-05-05T18:31:38.222Z,16.01
2023-05-05T18:34:04.350Z,15.79
2023-05-05T18:36:30.465Z,15.33
2023-05-05T18:38:56.583Z,15.25
2023-05-05T18:41:22.694Z,15.44
2023-05-05T18:43:48.815Z,15.36
2023-05-05T18:46:14.950Z,15.02
2023-05-05T18:48:41.061Z,14.90
2023-05-05T18:51:07.152Z,14.79
2023-05-05T18:53:33.271Z,14.67
2023-05-05T18:55:59.501Z,14.52
2023-05-05T18:58:25.615Z,14.36
2023-05-05T19:00:51.794Z,14.10
2023-05-05T19:03:17.920Z,13.95
2023-05-05T19:05:44.040Z,13.85
2023-05-05T19:08:10.143Z,13.82
2023-05-05T19:10:36.252Z,13.76
2023-05-05T19:13:02.357Z,13.66
2023-05-05T19:15:28.486Z,13.53
2023-05-05T19:17:54.616Z,13.46
2023-05-05T19:20:20.769Z,13.54
2023-05-05T19:22:46.882Z,13.30
2023-05-05T19:25:12.996Z,13.05
2023-05-05T19:27:39.110Z,13.10
2023-05-05T19:30:05.241Z,13.25
2023-05-05T19:32:31.410Z,13.43
2023-05-05T19:34:57.516Z,13.36
2023-05-05T19:37:23.618Z,12.93
2023-05-05T19:39:50.395Z,12.81
2023-05-05T19:42:17.657Z,12.81
2023-05-05T19:44:43.742Z,12.57
2023-05-05T19:47:10.980Z,12.58
2023-05-05T19:49:37.380Z,12.68
2023-05-05T19:52:03.489Z,12.70
2023-05-05T19:54:29.621Z,12.68
2023-05-05T19:56:57.190Z,12.63
2023-05-05T19:59:23.456Z,12.83
2023-05-05T20:01:49.693Z,12.72
2023-05-05T20:04:15.915Z,12.49
2023-05-05T20:06:42.052Z,12.42
2023-05-05T20:09:08.169Z,12.30
2023-05-05T20:11:34.336Z,12.32
2023-05-05T20:14:00.435Z,12.28
2023-05-05T20:16:26.651Z,12.32
2023-05-05T20:18:52.848Z,12.37
2023-05-05T20:21:18.990Z,12.43
2023-05-05T20:23:45.146Z,12.46
2023-05-05T20:26:11.294Z,12.35
2023-05-05T20:28:37.438Z,12.20
2023-05-05T20:31:03.593Z,12.15
2023-05-05T20:33:29.749Z,12.34
2023-05-05T20:35:56.301Z,12.30
2023-05-05T20:38:22.395Z,12.22
2023-05-05T20:40:48.487Z,12.13
2023-05-05T20:43:14.586Z,12.16
2023-05-05T20:45:40.714Z,12.05
2023-05-05T20:48:06.837Z,12.05
2023-05-05T20:50:32.995Z,12.08
2023-05-05T20:52:59.107Z,12.07
2023-05-05T20:55:25.233Z,11.89
2023-05-05T20:57:51.350Z,11.78
2023-05-05T21:00:17.486Z,11.63
2023-05-05T21:02:43.939Z,11.70
2023-05-05T21:05:10.121Z,11.77
2023-05-05T21:07:36.291Z,11.64
2023-05-05T21:10:02.757Z,11.61
2023-05-05T21:12:28.860Z,11.53
2023-05-05T21:14:54.957Z,11.54
2023-05-05T21:17:21.146Z,11.53
2023-05-05T21:19:47.364Z,11.51
2023-05-05T21:22:13.592Z,11.46
2023-05-05T21:24:39.711Z,11.36
2023-05-05T21:27:05.817Z,11.30
2023-05-05T21:29:31.910Z,11.16
2023-05-05T21:31:58.080Z,10.99
2023-05-05T21:34:24.231Z,10.94
2023-05-05T21:36:50.317Z,10.88
2023-05-05T21:39:16.464Z,10.86
2023-05-05T21:41:42.561Z,10.82
2023-05-05T21:44:08.656Z,10.55
2023-05-05T21:46:34.972Z,10.36
2023-05-05T21:49:01.097Z,10.60
2023-05-05T21:51:27.208Z,10.58
2023-05-05T21:53:53.322Z,10.49
2023-05-05T21:56:19.422Z,10.50
2023-05-05T21:58:45.524Z,10.43
2023-05-05T22:01:11.658Z,10.36
2023-05-05T22:03:38.187Z,10.18
2023-05-05T22:06:04.372Z,10.11
2023-05-05T22:08:30.493Z,10.10
2023-05-05T22:10:56.627Z,10.20
2023-05-05T22:13:22.753Z,10.13
2023-05-05T22:15:49.298Z,10.01
2023-05-05T22:18:15.525Z,10.02
2023-05-05T22:20:41.770Z,10.08
2023-05-05T22:23:07.900Z,10.27
2023-05-05T22:25:34.125Z,9.88
2023-05-05T22:28:00.241Z,9.83
2023-05-05T22:30:26.346Z,9.95
2023-05-05T22:32:52.559Z,10.14
2023-05-05T22:35:19.076Z,10.17
2023-05-05T22:37:45.186Z,10.03
2023-05-05T22:40:11.282Z,9.86
2023-05-05T22:42:37.484Z,9.68
2023-05-05T22:45:03.591Z,9.65
2023-05-05T22:47:29.760Z,9.80
2023-05-05T22:49:55.850Z,9.87
2023-05-05T22:52:22.014Z,9.75
2023-05-05T22:54:48.128Z,9.47
2023-05-05T22:57:14.217Z,9.51
2023-05-05T22:59:40.414Z,9.73
2023-05-05T23:02:06.863Z,9.91
2023-05-05T23:04:33.042Z,9.89
2023-05-05T23:06:59.202Z,9.91
2023-05-05T23:09:25.642Z,9.82
2023-05-05T23:11:51.798Z,9.92
2023-05-05T23:14:17.902Z,9.98
2023-05-05T23:16:44.049Z,9.86
2023-05-05T23:19:10.532Z,9.90
2023-05-05T23:21:49.328Z,9.83
2023-05-05T23:24:19.168Z,9.76
2023-05-05T23:26:45.371Z,9.76
2023-05-05T23:29:11.478Z,9.57
2023-05-05T23:31:37.905Z,9.68
2023-05-05T23:34:03.999Z,9.67
2023-05-05T23:36:30.416Z,9.39
2023-05-05T23:38:56.551Z,9.45
2023-05-05T23:41:22.954Z,9.77
2023-05-05T23:43:49.049Z,10.03
2023-05-05T23:46:15.211Z,9.96
2023-05-05T23:48:41.418Z,9.70
2023-05-05T23:51:07.519Z,9.77
2023-05-05T23:53:33.618Z,9.85
2023-05-05T23:56:00.148Z,9.96
2023-05-05T23:58:26.277Z,9.92
